createdAt,value
2022-11-09T00:00:11.633Z,786.47
2022-11-09T00:01:11.600Z,785.99
2022-11-09T00:02:11.598Z,785.48
2022-11-09T00:03:11.578Z,784.98
2022-11-09T00:04:11.572Z,784.87
2022-11-09T00:05:11.580Z,784.73
2022-11-09T00:06:11.548Z,784.24
2022-11-09T00:07:11.645Z,783.93
2022-11-09T00:08:11.553Z,783.54
2022-11-09T00:09:11.523Z,782.71
2022-11-09T00:10:11.591Z,782.11
2022-11-09T00:11:11.489Z,781.83
2022-11-09T00:12:11.478Z,781.46
2022-11-09T00:13:11.469Z,781.38
2022-11-09T00:14:11.472Z,780.92
2022-11-09T00:15:11.435Z,780.14
2022-11-09T00:16:11.434Z,778.69
2022-11-09T00:17:11.431Z,777.56
2022-11-09T00:18:11.396Z,776.58
2022-11-09T00:19:11.412Z,774.79
2022-11-09T00:20:11.412Z,773.92
2022-11-09T00:21:11.392Z,773.02
2022-11-09T00:22:11.353Z,772.23
2022-11-09T00:23:11.376Z,771.97
2022-11-09T00:24:11.323Z,771.91
2022-11-09T00:25:11.345Z,771.11
2022-11-09T00:26:11.322Z,770.04
2022-11-09T00:27:16.539Z,769.14
2022-11-09T00:28:12.291Z,767.99
2022-11-09T00:29:11.298Z,767.60
2022-11-09T00:30:11.287Z,768.11
2022-11-09T00:31:11.286Z,767.96
2022-11-09T00:32:11.244Z,767.96
2022-11-09T00:33:11.235Z,767.87
2022-11-09T00:34:11.224Z,767.87
2022-11-09T00:35:11.224Z,768.51
2022-11-09T00:36:11.198Z,768.31
2022-11-09T00:37:11.320Z,767.40
2022-11-09T00:38:11.228Z,767.15
2022-11-09T00:39:11.174Z,767.65
2022-11-09T00:40:11.187Z,768.31
2022-11-09T00:41:11.136Z,768.39
2022-11-09T00:42:11.135Z,768.43
2022-11-09T00:43:11.118Z,768.65
2022-11-09T00:44:11.096Z,768.30
2022-11-09T00:45:11.103Z,768.20
2022-11-09T00:46:11.104Z,768.24
2022-11-09T00:47:11.111Z,768.73
2022-11-09T00:48:12.057Z,769.09
2022-11-09T00:49:11.123Z,770.44
2022-11-09T00:50:11.077Z,771.54
2022-11-09T00:51:11.029Z,772.15
2022-11-09T00:52:11.018Z,772.95
2022-11-09T00:53:11.020Z,773.51
2022-11-09T00:54:10.999Z,774.11
2022-11-09T00:55:11.261Z,774.54
2022-11-09T00:56:11.026Z,774.93
2022-11-09T00:57:10.962Z,775.42
2022-11-09T00:58:10.968Z,775.78
2022-11-09T00:59:10.929Z,775.85
2022-11-09T01:00:10.988Z,776.17
2022-11-09T01:01:10.950Z,776.73
2022-11-09T01:02:10.904Z,777.40
2022-11-09T01:03:10.890Z,778.28
2022-11-09T01:04:11.167Z,779.26
2022-11-09T01:05:10.870Z,780.50
2022-11-09T01:06:10.865Z,781.12
2022-11-09T01:07:10.878Z,781.89
2022-11-09T01:08:10.861Z,782.34
2022-11-09T01:09:10.859Z,783.14
2022-11-09T01:10:11.013Z,784.13
2022-11-09T01:11:10.793Z,784.14
2022-11-09T01:12:10.802Z,784.30
2022-11-09T01:13:10.771Z,783.13
2022-11-09T01:14:10.771Z,782.45
2022-11-09T01:15:10.789Z,782.24
2022-11-09T01:16:10.995Z,782.50
2022-11-09T01:17:10.743Z,783.09
2022-11-09T01:18:10.714Z,783.40
2022-11-09T01:19:10.730Z,783.17
2022-11-09T01:20:10.705Z,782.62
2022-11-09T01:21:10.704Z,782.39
2022-11-09T01:22:10.694Z,782.72
2022-11-09T01:23:10.665Z,783.01
2022-11-09T01:24:10.673Z,783.34
2022-11-09T01:25:10.643Z,783.91
2022-11-09T01:26:10.706Z,784.45
2022-11-09T01:27:11.615Z,784.98
2022-11-09T01:28:10.626Z,785.36
2022-11-09T01:29:10.584Z,785.67
2022-11-09T01:30:10.605Z,785.87
2022-11-09T01:31:10.565Z,786.23
2022-11-09T01:32:10.561Z,786.75
2022-11-09T01:33:10.819Z,786.64
2022-11-09T01:34:10.526Z,786.99
2022-11-09T01:35:10.536Z,787.40
2022-11-09T01:36:10.568Z,788.03
2022-11-09T01:37:10.511Z,787.80
2022-11-09T01:38:10.495Z,787.37
2022-11-09T01:39:10.483Z,786.96
2022-11-09T01:40:10.499Z,787.55
2022-11-09T01:41:10.475Z,787.84
2022-11-09T01:42:10.448Z,788.35
2022-11-09T01:43:10.444Z,788.66
2022-11-09T01:44:10.428Z,788.69
2022-11-09T01:45:10.417Z,789.08
2022-11-09T01:46:10.391Z,789.32
2022-11-09T01:47:10.439Z,789.60
2022-11-09T01:48:10.368Z,790.19
2022-11-09T01:49:10.364Z,790.45
2022-11-09T01:50:10.368Z,790.96
2022-11-09T01:51:10.390Z,791.65
2022-11-09T01:52:10.327Z,792.19
2022-11-09T01:53:10.308Z,792.50
2022-11-09T01:54:10.319Z,792.62
2022-11-09T01:55:10.305Z,792.94
2022-11-09T01:56:10.283Z,793.12
2022-11-09T01:57:10.296Z,793.77
2022-11-09T01:58:10.267Z,793.79
2022-11-09T01:59:10.305Z,794.06
2022-11-09T02:00:10.253Z,794.18
2022-11-09T02:01:10.308Z,794.46
2022-11-09T02:02:10.485Z,794.80
2022-11-09T02:03:10.470Z,794.26
2022-11-09T02:04:10.190Z,793.53
2022-11-09T02:05:10.421Z,792.43
2022-11-09T02:06:10.164Z,791.54
2022-11-09T02:07:10.279Z,790.70
2022-11-09T02:08:10.147Z,790.58
2022-11-09T02:09:10.152Z,790.49
2022-11-09T02:10:10.160Z,788.87
2022-11-09T02:11:10.103Z,788.15
2022-11-09T02:12:10.091Z,788.27
2022-11-09T02:13:10.082Z,788.53
2022-11-09T02:14:10.091Z,788.88
2022-11-09T02:15:10.166Z,789.69
2022-11-09T02:16:10.058Z,791.79
2022-11-09T02:17:10.082Z,793.41
2022-11-09T02:18:10.032Z,793.82
2022-11-09T02:19:10.014Z,793.53
2022-11-09T02:20:10.024Z,794.28
2022-11-09T02:21:10.004Z,794.64
2022-11-09T02:22:09.982Z,794.95
2022-11-09T02:23:09.978Z,794.80
2022-11-09T02:24:09.966Z,794.63
2022-11-09T02:25:09.953Z,795.28
2022-11-09T02:26:09.922Z,795.23
2022-11-09T02:27:09.944Z,794.95
2022-11-09T02:28:09.908Z,795.46
2022-11-09T02:29:09.893Z,795.41
2022-11-09T02:30:09.921Z,795.56
2022-11-09T02:31:09.871Z,796.58
2022-11-09T02:32:09.845Z,796.88
2022-11-09T02:33:09.842Z,797.11
2022-11-09T02:34:09.844Z,797.18
2022-11-09T02:35:09.833Z,796.93
2022-11-09T02:36:09.835Z,797.32
2022-11-09T02:37:09.829Z,797.57
2022-11-09T02:38:09.796Z,798.39
2022-11-09T02:39:09.795Z,798.54
2022-11-09T02:40:09.806Z,798.90
2022-11-09T02:41:09.792Z,799.22
2022-11-09T02:42:10.710Z,799.67
2022-11-09T02:43:09.724Z,800.01
2022-11-09T02:44:09.735Z,800.11
2022-11-09T02:45:09.726Z,800.35
2022-11-09T02:46:09.727Z,800.86
2022-11-09T02:47:10.441Z,801.38
2022-11-09T02:48:09.666Z,801.55
2022-11-09T02:49:09.666Z,801.75
2022-11-09T02:50:09.674Z,802.13
2022-11-09T02:51:09.647Z,802.26
2022-11-09T02:52:09.625Z,802.65
2022-11-09T02:53:09.629Z,803.40
2022-11-09T02:54:09.635Z,803.50
2022-11-09T02:55:09.620Z,803.88
2022-11-09T02:56:09.605Z,804.52
2022-11-09T02:57:09.635Z,804.89
2022-11-09T02:58:09.569Z,805.06
2022-11-09T02:59:09.544Z,805.87
2022-11-09T03:00:09.574Z,806.30
2022-11-09T03:01:09.641Z,806.56
2022-11-09T03:02:09.555Z,807.15
2022-11-09T03:03:09.508Z,807.76
2022-11-09T03:04:09.501Z,808.11
2022-11-09T03:05:09.503Z,808.58
2022-11-09T03:06:09.458Z,809.00
2022-11-09T03:07:09.506Z,809.82
2022-11-09T03:08:09.460Z,810.37
2022-11-09T03:09:09.421Z,810.53
2022-11-09T03:10:09.440Z,810.84
2022-11-09T03:11:09.419Z,810.58
2022-11-09T03:12:09.409Z,810.47
2022-11-09T03:13:09.390Z,810.49
2022-11-09T03:14:09.410Z,810.05
2022-11-09T03:15:09.435Z,808.48
2022-11-09T03:16:09.358Z,806.68
2022-11-09T03:17:09.331Z,804.85
2022-11-09T03:18:09.351Z,802.90
2022-11-09T03:19:09.321Z,800.86
2022-11-09T03:20:09.346Z,800.00
2022-11-09T03:21:09.293Z,799.69
2022-11-09T03:22:09.281Z,799.14
2022-11-09T03:23:09.275Z,798.44
2022-11-09T03:24:09.273Z,798.37
2022-11-09T03:25:09.260Z,798.47
2022-11-09T03:26:09.245Z,798.07
2022-11-09T03:27:09.222Z,797.25
2022-11-09T03:28:09.243Z,797.23
2022-11-09T03:29:09.222Z,796.46
2022-11-09T03:30:09.197Z,795.94
2022-11-09T03:31:09.174Z,795.59
2022-11-09T03:32:09.163Z,795.45
2022-11-09T03:33:09.205Z,794.72
2022-11-09T03:34:09.157Z,794.68
2022-11-09T03:35:09.127Z,794.08
2022-11-09T03:36:09.150Z,793.25
2022-11-09T03:37:09.205Z,792.84
2022-11-09T03:38:09.098Z,793.06
2022-11-09T03:39:09.090Z,792.64
2022-11-09T03:40:09.085Z,792.55
2022-11-09T03:41:09.083Z,791.91
2022-11-09T03:42:09.045Z,791.78
2022-11-09T03:43:09.035Z,791.83
2022-11-09T03:44:09.069Z,792.20
2022-11-09T03:45:09.326Z,792.09
2022-11-09T03:46:09.019Z,791.89
2022-11-09T03:47:08.999Z,791.81
2022-11-09T03:48:08.978Z,792.50
2022-11-09T03:49:08.974Z,792.59
2022-11-09T03:50:08.966Z,792.93
2022-11-09T03:51:08.957Z,793.11
2022-11-09T03:52:08.946Z,792.10
2022-11-09T03:53:08.919Z,790.26
2022-11-09T03:54:08.913Z,789.23
2022-11-09T03:55:08.940Z,788.88
2022-11-09T03:56:08.881Z,789.29
2022-11-09T03:57:08.898Z,790.29
2022-11-09T03:58:08.955Z,791.08
2022-11-09T03:59:08.862Z,791.20
2022-11-09T04:00:08.840Z,791.45
2022-11-09T04:01:08.864Z,792.38
2022-11-09T04:02:08.884Z,791.54
2022-11-09T04:03:08.815Z,790.45
2022-11-09T04:04:08.813Z,789.51
2022-11-09T04:05:08.813Z,789.18
2022-11-09T04:06:08.769Z,789.61
2022-11-09T04:07:08.840Z,789.89
2022-11-09T04:08:08.766Z,790.12
2022-11-09T04:09:08.739Z,790.01
2022-11-09T04:10:08.751Z,790.18
2022-11-09T04:11:08.730Z,790.66
2022-11-09T04:12:08.712Z,791.38
2022-11-09T04:13:08.766Z,792.37
2022-11-09T04:14:08.693Z,793.13
2022-11-09T04:15:08.687Z,793.37
2022-11-09T04:16:08.652Z,793.51
2022-11-09T04:17:08.640Z,794.38
2022-11-09T04:18:08.657Z,794.25
2022-11-09T04:19:08.638Z,794.55
2022-11-09T04:20:08.641Z,794.64
2022-11-09T04:21:08.625Z,794.63
2022-11-09T04:22:08.581Z,794.83
2022-11-09T04:23:08.571Z,795.65
2022-11-09T04:24:08.584Z,796.07
2022-11-09T04:25:08.552Z,797.05
2022-11-09T04:26:08.534Z,797.72
2022-11-09T04:27:08.524Z,798.58
2022-11-09T04:28:08.533Z,798.96
2022-11-09T04:29:08.504Z,799.51
2022-11-09T04:30:08.513Z,800.06
2022-11-09T04:31:08.474Z,800.29
2022-11-09T04:32:08.464Z,800.18
2022-11-09T04:33:08.455Z,800.28
2022-11-09T04:34:08.454Z,800.09
2022-11-09T04:35:08.477Z,800.02
2022-11-09T04:36:08.437Z,800.12
2022-11-09T04:37:08.415Z,799.86
2022-11-09T04:38:08.432Z,800.46
2022-11-09T04:39:08.394Z,801.04
2022-11-09T04:40:08.407Z,801.41
2022-11-09T04:41:08.387Z,801.06
2022-11-09T04:42:08.378Z,800.76
2022-11-09T04:43:08.342Z,800.55
2022-11-09T04:44:08.357Z,800.88
2022-11-09T04:45:08.348Z,801.28
2022-11-09T04:46:08.371Z,800.87
2022-11-09T04:47:08.297Z,800.50
2022-11-09T04:48:08.307Z,800.32
2022-11-09T04:49:08.290Z,799.67
2022-11-09T04:50:08.267Z,799.25
2022-11-09T04:51:08.269Z,798.73
2022-11-09T04:52:08.268Z,798.21
2022-11-09T04:53:08.259Z,797.81
2022-11-09T04:54:08.219Z,797.65
2022-11-09T04:55:08.265Z,796.91
2022-11-09T04:56:08.180Z,796.30
2022-11-09T04:57:08.188Z,795.88
2022-11-09T04:58:08.202Z,795.87
2022-11-09T04:59:08.198Z,795.38
2022-11-09T05:00:08.170Z,795.37
2022-11-09T05:01:08.130Z,795.38
2022-11-09T05:02:08.139Z,795.12
2022-11-09T05:03:08.150Z,794.92
2022-11-09T05:04:08.179Z,794.54
2022-11-09T05:05:08.127Z,793.95
2022-11-09T05:06:08.116Z,793.83
2022-11-09T05:07:08.183Z,794.25
2022-11-09T05:08:08.086Z,793.76
2022-11-09T05:09:08.051Z,792.85
2022-11-09T05:10:08.063Z,792.13
2022-11-09T05:11:08.031Z,791.94
2022-11-09T05:12:08.018Z,791.74
2022-11-09T05:13:08.004Z,791.38
2022-11-09T05:14:07.987Z,791.68
2022-11-09T05:15:08.002Z,791.67
2022-11-09T05:16:07.987Z,791.31
2022-11-09T05:17:07.942Z,791.34
2022-11-09T05:18:07.942Z,791.59
2022-11-09T05:19:08.203Z,792.09
2022-11-09T05:20:07.922Z,792.42
2022-11-09T05:21:07.903Z,791.82
2022-11-09T05:22:07.946Z,791.64
2022-11-09T05:23:07.862Z,791.92
2022-11-09T05:24:07.873Z,792.57
2022-11-09T05:25:07.886Z,791.83
2022-11-09T05:26:07.863Z,791.62
2022-11-09T05:27:07.835Z,792.02
2022-11-09T05:28:09.557Z,791.84
2022-11-09T05:29:07.853Z,791.72
2022-11-09T05:30:07.839Z,791.85
2022-11-09T05:31:07.787Z,791.77
2022-11-09T05:32:07.801Z,792.34
2022-11-09T05:33:07.764Z,792.45
2022-11-09T05:34:07.750Z,792.79
2022-11-09T05:35:07.791Z,792.97
2022-11-09T05:36:07.732Z,793.37
2022-11-09T05:37:07.735Z,793.66
2022-11-09T05:38:07.732Z,793.10
2022-11-09T05:39:07.706Z,793.09
2022-11-09T05:40:07.687Z,793.14
2022-11-09T05:41:07.666Z,793.15
2022-11-09T05:42:07.678Z,793.02
2022-11-09T05:43:07.652Z,793.23
2022-11-09T05:44:07.637Z,793.16
2022-11-09T05:45:40.063Z,793.40
2022-11-09T05:46:08.619Z,793.29
2022-11-09T05:47:07.617Z,793.98
2022-11-09T05:48:07.596Z,793.86
2022-11-09T05:49:07.611Z,793.95
2022-11-09T05:50:07.576Z,793.95
2022-11-09T05:51:07.553Z,794.09
2022-11-09T05:52:07.554Z,794.55
2022-11-09T05:53:07.521Z,794.65
2022-11-09T05:54:07.516Z,794.69
2022-11-09T05:55:07.544Z,794.56
2022-11-09T05:56:07.501Z,794.38
2022-11-09T05:57:07.480Z,794.49
2022-11-09T05:58:07.479Z,794.58
2022-11-09T05:59:07.469Z,794.83
2022-11-09T06:00:10.918Z,794.87
2022-11-09T06:01:07.458Z,794.77
2022-11-09T06:02:07.486Z,795.24
2022-11-09T06:03:07.430Z,796.53
2022-11-09T06:04:07.403Z,798.00
2022-11-09T06:05:07.439Z,798.64
2022-11-09T06:06:08.831Z,798.85
2022-11-09T06:07:07.390Z,799.24
2022-11-09T06:08:07.354Z,799.43
2022-11-09T06:09:07.352Z,799.87
2022-11-09T06:10:07.352Z,799.90
2022-11-09T06:11:07.328Z,800.23
2022-11-09T06:12:07.321Z,800.53
2022-11-09T06:13:07.312Z,801.13
2022-11-09T06:14:07.281Z,801.48
2022-11-09T06:15:07.346Z,801.59
2022-11-09T06:16:07.264Z,802.75
2022-11-09T06:17:07.252Z,803.71
2022-11-09T06:18:07.267Z,804.25
2022-11-09T06:19:11.093Z,804.80
2022-11-09T06:20:07.247Z,805.31
2022-11-09T06:21:07.201Z,805.30
2022-11-09T06:22:07.207Z,805.40
2022-11-09T06:23:07.211Z,805.64
2022-11-09T06:24:07.174Z,805.55
2022-11-09T06:25:07.205Z,805.80
2022-11-09T06:26:07.178Z,806.24
2022-11-09T06:27:07.157Z,806.57
2022-11-09T06:28:07.155Z,807.10
2022-11-09T06:29:07.135Z,807.73
2022-11-09T06:30:07.115Z,808.94
2022-11-09T06:31:07.074Z,809.68
2022-11-09T06:32:07.095Z,810.55
2022-11-09T06:33:07.062Z,811.38
2022-11-09T06:34:07.071Z,812.45
2022-11-09T06:35:07.054Z,813.35
2022-11-09T06:36:07.063Z,814.61
2022-11-09T06:37:07.011Z,816.11
2022-11-09T06:38:07.009Z,816.81
2022-11-09T06:39:07.005Z,818.11
2022-11-09T06:40:07.010Z,819.62
2022-11-09T06:41:06.969Z,821.12
2022-11-09T06:42:07.024Z,822.74
2022-11-09T06:43:06.939Z,824.41
2022-11-09T06:44:06.942Z,825.59
2022-11-09T06:45:06.949Z,826.38
2022-11-09T06:46:06.929Z,827.62
2022-11-09T06:47:06.908Z,828.30
2022-11-09T06:48:06.895Z,828.97
2022-11-09T06:49:06.887Z,829.59
2022-11-09T06:50:06.878Z,829.91
2022-11-09T06:51:06.858Z,829.54
2022-11-09T06:52:07.111Z,829.50
2022-11-09T06:53:06.844Z,829.69
2022-11-09T06:54:06.819Z,830.14
2022-11-09T06:55:06.846Z,829.84
2022-11-09T06:56:06.811Z,830.47
2022-11-09T06:57:06.794Z,831.72
2022-11-09T06:58:06.783Z,832.75
2022-11-09T06:59:06.767Z,834.28
2022-11-09T07:00:06.777Z,835.78
2022-11-09T07:01:06.823Z,837.17
2022-11-09T07:02:06.749Z,838.22
2022-11-09T07:03:06.720Z,839.56
2022-11-09T07:04:06.711Z,841.40
2022-11-09T07:05:06.719Z,842.86
2022-11-09T07:06:06.706Z,844.21
2022-11-09T07:07:06.736Z,845.83
2022-11-09T07:08:06.682Z,846.93
2022-11-09T07:09:06.660Z,847.97
2022-11-09T07:10:06.652Z,848.39
2022-11-09T07:11:06.647Z,849.24
2022-11-09T07:12:06.636Z,849.73
2022-11-09T07:13:06.612Z,850.12
2022-11-09T07:14:06.602Z,850.62
2022-11-09T07:15:06.612Z,851.11
2022-11-09T07:16:06.580Z,851.64
2022-11-09T07:17:06.617Z,851.62
2022-11-09T07:18:06.554Z,851.69
2022-11-09T07:19:06.541Z,852.20
2022-11-09T07:20:06.574Z,853.04
2022-11-09T07:21:08.886Z,853.94
2022-11-09T07:22:07.512Z,855.30
2022-11-09T07:23:06.534Z,857.09
2022-11-09T07:24:06.472Z,858.63
2022-11-09T07:25:06.475Z,860.06
2022-11-09T07:26:06.475Z,861.00
2022-11-09T07:27:06.473Z,861.79
2022-11-09T07:28:06.479Z,862.28
2022-11-09T07:29:06.443Z,862.62
2022-11-09T07:30:06.414Z,862.98
2022-11-09T07:31:06.404Z,862.60
2022-11-09T07:32:06.405Z,862.59
2022-11-09T07:33:09.628Z,863.19
2022-11-09T07:34:06.370Z,863.17
2022-11-09T07:35:06.378Z,863.85
2022-11-09T07:36:06.338Z,864.34
2022-11-09T07:37:06.339Z,865.85
2022-11-09T07:38:06.328Z,867.41
2022-11-09T07:39:06.338Z,868.95
2022-11-09T07:40:06.306Z,873.59
2022-11-09T07:41:06.305Z,876.77
2022-11-09T07:42:06.267Z,890.99
2022-11-09T07:43:06.265Z,891.20
2022-11-09T07:44:06.249Z,886.48
2022-11-09T07:45:06.250Z,884.50
2022-11-09T07:46:06.247Z,892.14
2022-11-09T07:47:06.217Z,888.98
2022-11-09T07:48:06.219Z,886.63
2022-11-09T07:49:06.225Z,880.81
2022-11-09T07:50:06.214Z,880.94
2022-11-09T07:51:06.191Z,878.58
2022-11-09T07:52:06.162Z,878.85
2022-11-09T07:53:06.146Z,879.94
2022-11-09T07:54:06.141Z,873.59
2022-11-09T07:55:06.149Z,871.69
2022-11-09T07:56:06.117Z,869.13
2022-11-09T07:57:06.096Z,868.65
2022-11-09T07:58:06.097Z,880.37
2022-11-09T07:59:06.113Z,878.25
2022-11-09T08:00:06.095Z,879.95
2022-11-09T08:01:06.068Z,873.91
2022-11-09T08:02:06.134Z,867.93
2022-11-09T08:03:06.027Z,864.76
2022-11-09T08:04:06.031Z,867.16
2022-11-09T08:05:06.030Z,871.11
2022-11-09T08:06:06.010Z,874.31
2022-11-09T08:07:06.068Z,868.53
2022-11-09T08:08:06.007Z,868.13
2022-11-09T08:09:06.017Z,862.42
2022-11-09T08:10:05.958Z,864.99
2022-11-09T08:11:05.963Z,862.36
2022-11-09T08:12:05.937Z,862.68
2022-11-09T08:13:05.911Z,847.30
2022-11-09T08:14:05.911Z,861.03
2022-11-09T08:15:05.926Z,868.13
2022-11-09T08:16:05.907Z,866.50
2022-11-09T08:17:05.862Z,854.80
2022-11-09T08:18:05.906Z,831.18
2022-11-09T08:19:05.867Z,825.89
2022-11-09T08:20:05.821Z,825.10
2022-11-09T08:21:05.850Z,822.98
2022-11-09T08:22:05.819Z,824.49
2022-11-09T08:23:05.820Z,816.09
2022-11-09T08:24:06.193Z,822.81
2022-11-09T08:25:05.781Z,820.50
2022-11-09T08:26:05.794Z,827.81
2022-11-09T08:27:05.788Z,815.67
2022-11-09T08:28:08.495Z,810.11
2022-11-09T08:29:06.730Z,810.36
2022-11-09T08:30:05.772Z,815.05
2022-11-09T08:31:05.780Z,815.90
2022-11-09T08:32:05.954Z,810.37
2022-11-09T08:33:05.693Z,833.55
2022-11-09T08:34:05.699Z,836.87
2022-11-09T08:35:05.696Z,832.23
2022-11-09T08:36:05.649Z,828.72
2022-11-09T08:37:05.662Z,828.79
2022-11-09T08:38:05.618Z,837.07
2022-11-09T08:39:05.613Z,836.67
2022-11-09T08:40:05.604Z,830.65
2022-11-09T08:41:10.559Z,820.74
2022-11-09T08:42:06.583Z,818.83
2022-11-09T08:43:05.577Z,823.52
2022-11-09T08:44:05.563Z,825.79
2022-11-09T08:45:05.571Z,825.21
2022-11-09T08:46:05.534Z,827.15
2022-11-09T08:47:05.525Z,828.38
2022-11-09T08:48:05.535Z,825.97
2022-11-09T08:49:05.547Z,818.78
2022-11-09T08:50:05.493Z,819.73
2022-11-09T08:51:05.504Z,818.60
2022-11-09T08:52:05.454Z,810.12
2022-11-09T08:53:05.445Z,814.67
2022-11-09T08:54:05.436Z,825.34
2022-11-09T08:55:05.709Z,811.90
2022-11-09T08:56:05.440Z,806.32
2022-11-09T08:57:05.418Z,816.06
2022-11-09T08:58:05.412Z,817.58
2022-11-09T08:59:05.376Z,818.24
2022-11-09T09:00:05.371Z,806.77
2022-11-09T09:01:05.385Z,817.34
2022-11-09T09:02:05.392Z,815.17
2022-11-09T09:03:05.328Z,816.86
2022-11-09T09:04:05.331Z,816.34
2022-11-09T09:05:05.309Z,801.47
2022-11-09T09:06:05.316Z,811.98
2022-11-09T09:07:05.369Z,807.10
2022-11-09T09:08:05.291Z,814.15
2022-11-09T09:09:05.278Z,816.21
2022-11-09T09:10:05.300Z,816.75
2022-11-09T09:11:05.259Z,818.66
2022-11-09T09:12:05.239Z,820.30
2022-11-09T09:13:05.223Z,822.96
2022-11-09T09:14:05.233Z,828.38
2022-11-09T09:15:05.202Z,826.74
2022-11-09T09:16:05.208Z,845.08
2022-11-09T09:17:05.181Z,840.47
2022-11-09T09:18:05.171Z,845.32
2022-11-09T09:19:05.161Z,866.22
2022-11-09T09:20:05.417Z,865.69
2022-11-09T09:21:05.161Z,862.95
2022-11-09T09:22:05.123Z,867.21
2022-11-09T09:23:05.102Z,869.23
2022-11-09T09:24:05.092Z,871.22
2022-11-09T09:25:05.102Z,855.99
2022-11-09T09:26:05.107Z,849.68
2022-11-09T09:27:05.072Z,831.05
2022-11-09T09:28:05.069Z,817.59
2022-11-09T09:29:05.046Z,811.18
2022-11-09T09:30:05.080Z,799.13
2022-11-09T09:31:05.045Z,800.75
2022-11-09T09:32:05.013Z,806.94
2022-11-09T09:33:04.996Z,804.62
2022-11-09T09:34:04.982Z,803.09
2022-11-09T09:35:04.974Z,806.23
2022-11-09T09:36:04.993Z,808.23
2022-11-09T09:37:04.943Z,807.23
2022-11-09T09:38:04.948Z,808.73
2022-11-09T09:39:04.934Z,800.87
2022-11-09T09:40:04.946Z,797.17
2022-11-09T09:41:04.948Z,801.31
2022-11-09T09:42:04.899Z,808.42
2022-11-09T09:43:04.889Z,829.61
2022-11-09T09:44:04.875Z,854.87
2022-11-09T09:45:04.878Z,865.42
2022-11-09T09:46:04.857Z,871.64
2022-11-09T09:47:04.836Z,890.21
2022-11-09T09:48:04.828Z,901.77
2022-11-09T09:49:04.806Z,904.83
2022-11-09T09:50:04.875Z,908.86
2022-11-09T09:51:04.823Z,911.29
2022-11-09T09:52:04.787Z,917.53
2022-11-09T09:53:23.146Z,911.71
2022-11-09T09:54:05.769Z,906.65
2022-11-09T09:55:04.749Z,905.97
2022-11-09T09:56:04.755Z,908.42
2022-11-09T09:57:04.715Z,914.15
2022-11-09T09:58:04.987Z,929.02
2022-11-09T09:59:04.700Z,933.83
2022-11-09T10:00:04.692Z,942.13
2022-11-09T10:01:04.691Z,946.29
2022-11-09T10:02:04.679Z,951.56
2022-11-09T10:03:04.651Z,943.05
2022-11-09T10:04:04.677Z,933.65
2022-11-09T10:05:04.739Z,932.21
2022-11-09T10:06:04.648Z,932.64
2022-11-09T10:07:04.901Z,934.07
2022-11-09T10:08:04.610Z,938.11
2022-11-09T10:09:04.579Z,942.51
2022-11-09T10:10:04.634Z,948.42
2022-11-09T10:11:04.580Z,939.55
2022-11-09T10:12:04.568Z,942.19
2022-11-09T10:13:04.536Z,944.05
2022-11-09T10:14:04.541Z,953.92
2022-11-09T10:15:04.531Z,958.63
2022-11-09T10:16:04.532Z,960.39
2022-11-09T10:17:04.494Z,956.97
2022-11-09T10:18:04.501Z,948.30
2022-11-09T10:19:04.476Z,944.53
2022-11-09T10:20:04.475Z,944.51
2022-11-09T10:21:06.203Z,931.74
2022-11-09T10:22:04.449Z,939.12
2022-11-09T10:23:04.434Z,945.05
2022-11-09T10:24:04.423Z,958.20
2022-11-09T10:25:32.234Z,957.44
2022-11-09T10:26:07.900Z,939.73
2022-11-09T10:27:05.387Z,936.52
2022-11-09T10:28:04.389Z,921.03
2022-11-09T10:29:19.736Z,917.56
2022-11-09T10:30:05.352Z,910.10
2022-11-09T10:31:04.365Z,909.63
2022-11-09T10:32:04.395Z,913.13
2022-11-09T10:33:04.323Z,910.32
2022-11-09T10:34:04.321Z,918.49
2022-11-09T10:35:04.337Z,910.73
2022-11-09T10:36:08.204Z,904.87
2022-11-09T10:37:04.294Z,909.95
2022-11-09T10:38:04.275Z,891.97
2022-11-09T10:39:04.256Z,877.40
2022-11-09T10:40:04.264Z,877.93
2022-11-09T10:41:04.265Z,881.47
2022-11-09T10:42:04.222Z,874.90
2022-11-09T10:43:04.207Z,886.99
2022-11-09T10:44:04.206Z,875.41
2022-11-09T10:45:04.209Z,869.19
2022-11-09T10:46:04.192Z,871.93
2022-11-09T10:47:04.177Z,879.65
2022-11-09T10:48:04.171Z,876.79
2022-11-09T10:49:04.427Z,880.93
2022-11-09T10:50:04.152Z,890.44
2022-11-09T10:51:04.140Z,905.45
2022-11-09T10:52:04.126Z,912.96
2022-11-09T10:53:04.109Z,918.95
2022-11-09T10:54:04.106Z,919.32
2022-11-09T10:55:04.102Z,918.63
2022-11-09T10:56:04.089Z,915.72
2022-11-09T10:57:06.519Z,909.16
2022-11-09T10:58:04.063Z,898.94
2022-11-09T10:59:04.051Z,879.99
2022-11-09T11:00:04.030Z,863.75
2022-11-09T11:01:04.228Z,863.70
2022-11-09T11:02:04.089Z,855.00
2022-11-09T11:03:03.994Z,844.72
2022-11-09T11:04:03.990Z,835.93
2022-11-09T11:05:04.000Z,826.15
2022-11-09T11:06:03.964Z,813.29
2022-11-09T11:07:03.998Z,802.85
2022-11-09T11:08:04.231Z,800.33
2022-11-09T11:09:04.209Z,797.72
2022-11-09T11:10:03.953Z,797.45
2022-11-09T11:11:27.198Z,796.74
2022-11-09T11:12:04.924Z,798.61
2022-11-09T11:13:03.919Z,803.51
2022-11-09T11:14:03.885Z,807.47
2022-11-09T11:15:03.882Z,808.17
2022-11-09T11:16:03.874Z,808.86
2022-11-09T11:17:03.844Z,812.03
2022-11-09T11:18:03.844Z,813.68
2022-11-09T11:19:03.836Z,813.48
2022-11-09T11:20:03.866Z,814.85
2022-11-09T11:21:03.806Z,816.80
2022-11-09T11:22:03.826Z,821.03
2022-11-09T11:23:03.807Z,828.26
2022-11-09T11:24:03.777Z,836.17
2022-11-09T11:25:03.776Z,845.43
2022-11-09T11:26:03.768Z,850.64
2022-11-09T11:27:07.882Z,858.28
2022-11-09T11:28:04.741Z,864.57
2022-11-09T11:29:03.734Z,869.85
2022-11-09T11:30:03.729Z,872.77
2022-11-09T11:31:03.733Z,879.30
2022-11-09T11:32:03.698Z,884.63
2022-11-09T11:33:03.690Z,888.88
2022-11-09T11:34:03.668Z,890.52
2022-11-09T11:35:03.993Z,899.11
2022-11-09T11:36:03.670Z,906.62
2022-11-09T11:37:03.648Z,913.00
2022-11-09T11:38:03.662Z,916.56
2022-11-09T11:39:03.626Z,915.02
2022-11-09T11:40:03.630Z,920.25
2022-11-09T11:41:03.612Z,918.56
2022-11-09T11:42:03.581Z,925.81
2022-11-09T11:43:03.572Z,929.91
2022-11-09T11:44:03.560Z,938.63
2022-11-09T11:45:33.626Z,938.58
2022-11-09T11:46:04.544Z,935.71
2022-11-09T11:47:03.538Z,933.07
2022-11-09T11:48:03.539Z,923.37
2022-11-09T11:49:03.521Z,920.13
2022-11-09T11:50:03.776Z,917.16
2022-11-09T11:51:03.499Z,917.37
2022-11-09T11:52:03.500Z,916.24
2022-11-09T11:53:03.531Z,917.73
2022-11-09T11:54:03.452Z,912.34
2022-11-09T11:55:03.493Z,907.81
2022-11-09T11:56:03.463Z,907.86
2022-11-09T11:57:03.447Z,901.11
2022-11-09T11:58:03.404Z,897.53
2022-11-09T11:59:03.413Z,889.85
2022-11-09T12:00:03.403Z,873.72
2022-11-09T12:01:03.404Z,872.68
2022-11-09T12:02:03.371Z,877.41
2022-11-09T12:03:03.437Z,872.59
2022-11-09T12:04:03.377Z,878.93
2022-11-09T12:05:03.359Z,877.06
2022-11-09T12:06:03.995Z,875.30
2022-11-09T12:07:03.383Z,873.11
2022-11-09T12:08:03.304Z,870.28
2022-11-09T12:09:03.293Z,855.36
2022-11-09T12:10:03.306Z,846.83
2022-11-09T12:11:03.276Z,854.17
2022-11-09T12:12:03.268Z,849.80
2022-11-09T12:13:03.270Z,846.98
2022-11-09T12:14:03.239Z,842.32
2022-11-09T12:15:03.260Z,856.97
2022-11-09T12:16:03.238Z,847.99
2022-11-09T12:17:03.200Z,842.47
2022-11-09T12:18:03.188Z,852.68
2022-11-09T12:19:03.177Z,853.39
2022-11-09T12:20:03.179Z,854.98
2022-11-09T12:21:03.139Z,846.91
2022-11-09T12:22:03.156Z,840.53
2022-11-09T12:23:03.128Z,834.17
2022-11-09T12:24:03.131Z,833.29
2022-11-09T12:25:03.393Z,829.25
2022-11-09T12:26:03.106Z,827.38
2022-11-09T12:27:30.559Z,834.13
2022-11-09T12:28:04.074Z,842.27